createdAt,value
2022-09-11T00:04:40.069Z,2.57
2022-09-11T00:09:42.996Z,2.67
2022-09-11T00:14:45.908Z,3.07
2022-09-11T00:19:50.215Z,3.03
2022-09-11T00:24:53.099Z,2.70
2022-09-11T00:29:56.001Z,2.87
2022-09-11T00:35:00.416Z,3.03
2022-09-11T00:40:04.127Z,2.80
2022-09-11T00:45:09.122Z,3.00
2022-09-11T00:50:19.461Z,3.10
2022-09-11T00:55:27.688Z,3.47
2022-09-11T01:00:31.095Z,3.47
2022-09-11T01:05:38.104Z,3.13
2022-09-11T01:10:51.640Z,2.70
2022-09-11T01:16:06.278Z,2.90
2022-09-11T01:21:52.606Z,2.70
2022-09-11T01:27:11.159Z,3.27
2022-09-11T01:32:22.137Z,3.30
2022-09-11T01:37:31.285Z,3.10
2022-09-11T01:42:37.976Z,3.00
2022-09-11T01:47:46.114Z,3.07
2022-09-11T01:52:53.249Z,3.00
2022-09-11T01:58:01.147Z,2.90
2022-09-11T02:03:11.892Z,3.00
2022-09-11T02:08:19.709Z,3.20
2022-09-11T02:13:29.784Z,3.17
2022-09-11T02:18:42.542Z,2.87
2022-09-11T02:23:45.668Z,3.17
2022-09-11T02:28:52.189Z,3.27
2022-09-11T02:33:57.911Z,3.47
2022-09-11T02:39:15.188Z,3.33
2022-09-11T02:44:29.914Z,3.10
2022-09-11T02:49:45.124Z,3.57
2022-09-11T02:54:55.108Z,3.63
2022-09-11T03:00:01.423Z,3.47
2022-09-11T03:05:09.447Z,3.00
2022-09-11T03:10:12.990Z,3.10
2022-09-11T03:15:17.422Z,3.27
2022-09-11T03:20:22.107Z,4.33
2022-09-11T03:25:28.280Z,3.97
2022-09-11T03:30:34.231Z,4.57
2022-09-11T03:35:38.705Z,3.93
2022-09-11T03:40:43.925Z,4.43
2022-09-11T03:45:51.118Z,4.77
2022-09-11T03:50:55.643Z,4.43
2022-09-11T03:55:58.658Z,3.97
2022-09-11T04:01:01.721Z,5.00
2022-09-11T04:06:08.103Z,5.30
2022-09-11T04:11:12.780Z,5.47
2022-09-11T04:16:19.544Z,5.23
2022-09-11T04:21:29.127Z,5.13
2022-09-11T04:26:34.236Z,5.27
2022-09-11T04:31:45.224Z,6.07
2022-09-11T04:36:51.807Z,6.73
2022-09-11T04:41:57.566Z,6.40
2022-09-11T04:47:00.513Z,6.90
2022-09-11T04:52:07.357Z,7.00
2022-09-11T04:57:10.832Z,7.30
2022-09-11T05:02:15.237Z,7.80
2022-09-11T05:07:25.279Z,6.97
2022-09-11T05:12:31.875Z,6.53
2022-09-11T05:17:35.416Z,5.83
2022-09-11T05:22:41.761Z,6.87
2022-09-11T05:27:44.849Z,7.00
2022-09-11T05:32:48.101Z,6.23
2022-09-11T05:37:53.564Z,7.30
2022-09-11T05:42:56.747Z,7.63
2022-09-11T05:48:00.399Z,8.27
2022-09-11T05:53:05.557Z,7.40
2022-09-11T05:58:08.795Z,7.20
2022-09-11T06:03:15.392Z,8.97
2022-09-11T06:08:20.324Z,8.30
2022-09-11T06:13:23.321Z,8.77
2022-09-11T06:18:28.072Z,9.50
2022-09-11T06:23:32.493Z,9.37
2022-09-11T06:28:36.328Z,9.90
2022-09-11T06:33:41.512Z,9.93
2022-09-11T06:38:46.641Z,10.10
2022-09-11T06:43:53.951Z,11.00
2022-09-11T06:48:57.633Z,11.40
2022-09-11T06:54:05.576Z,11.67
2022-09-11T06:59:11.506Z,9.80
2022-09-11T07:04:14.396Z,10.53
2022-09-11T07:09:20.287Z,10.67
2022-09-11T07:14:27.788Z,10.20
2022-09-11T07:19:40.991Z,11.57
2022-09-11T07:24:47.325Z,12.50
2022-09-11T07:29:51.287Z,12.47
2022-09-11T07:34:54.545Z,12.60
2022-09-11T07:39:58.964Z,12.80
2022-09-11T07:45:05.755Z,13.40
2022-09-11T07:50:10.177Z,12.33
2022-09-11T07:55:16.444Z,11.17
2022-09-11T08:00:20.198Z,8.90
2022-09-11T08:05:23.053Z,8.97
2022-09-11T08:10:28.255Z,8.80
2022-09-11T08:15:32.844Z,8.37
2022-09-11T08:20:37.328Z,7.87
2022-09-11T08:25:41.724Z,7.50
2022-09-11T08:30:45.737Z,8.13
2022-09-11T08:35:49.328Z,7.93
2022-09-11T08:40:54.911Z,7.50
2022-09-11T08:46:04.920Z,7.23
2022-09-11T08:51:08.824Z,8.23
2022-09-11T08:56:18.429Z,7.50
2022-09-11T09:01:27.248Z,8.30
2022-09-11T09:06:44.345Z,8.70
2022-09-11T09:11:57.626Z,8.63
2022-09-11T09:17:05.826Z,9.90
2022-09-11T09:22:18.867Z,12.90
2022-09-11T09:27:30.661Z,15.63
2022-09-11T09:32:39.120Z,19.57
2022-09-11T09:37:42.923Z,17.10
2022-09-11T09:43:13.944Z,20.53
2022-09-11T09:48:17.566Z,21.60
2022-09-11T09:53:32.773Z,22.80
2022-09-11T09:58:42.489Z,23.30
2022-09-11T10:03:45.492Z,23.53
2022-09-11T10:08:48.677Z,26.80
2022-09-11T10:13:57.286Z,26.40
2022-09-11T10:19:00.430Z,22.50
2022-09-11T10:24:20.467Z,23.33
2022-09-11T10:29:29.336Z,22.50
2022-09-11T10:34:37.853Z,21.07
2022-09-11T10:39:43.081Z,21.50
2022-09-11T10:44:49.512Z,16.63
2022-09-11T10:50:20.351Z,16.00
2022-09-11T10:55:24.067Z,15.20
2022-09-11T11:00:30.483Z,14.60
2022-09-11T11:05:42.828Z,12.70
2022-09-11T11:11:00.248Z,14.30
2022-09-11T11:16:14.644Z,12.60
2022-09-11T11:21:32.420Z,13.70
2022-09-11T11:26:50.588Z,13.90
2022-09-11T11:32:10.651Z,14.00
2022-09-11T11:37:17.977Z,12.40
2022-09-11T11:42:27.059Z,12.73
2022-09-11T11:47:36.691Z,12.67
2022-09-11T11:52:51.074Z,14.47
2022-09-11T11:58:01.656Z,12.03
2022-09-11T12:03:12.496Z,12.43
2022-09-11T12:08:16.825Z,13.37
2022-09-11T12:13:21.400Z,12.57
2022-09-11T12:18:26.764Z,16.90
2022-09-11T12:23:56.916Z,16.50
2022-09-11T12:29:33.308Z,16.03
2022-09-11T12:35:00.847Z,15.00
2022-09-11T12:40:09.070Z,15.20
2022-09-11T12:45:31.345Z,15.90
2022-09-11T12:50:36.713Z,16.40
2022-09-11T12:55:43.603Z,16.20
2022-09-11T13:00:50.494Z,14.67
2022-09-11T13:05:58.064Z,13.80
2022-09-11T13:11:39.488Z,13.10
2022-09-11T13:16:47.192Z,12.43
2022-09-11T13:21:53.518Z,11.57
2022-09-11T13:26:59.801Z,10.60
2022-09-11T13:32:11.353Z,9.63
2022-09-11T13:37:26.571Z,8.63
2022-09-11T13:42:30.414Z,8.27
2022-09-11T13:47:35.229Z,7.83
2022-09-11T13:52:41.899Z,7.90
2022-09-11T13:57:53.724Z,7.63
2022-09-11T14:02:56.740Z,8.33
2022-09-11T14:08:04.719Z,8.03
2022-09-11T14:13:16.127Z,8.40
2022-09-11T14:18:26.593Z,7.70
2022-09-11T14:23:31.847Z,7.43
2022-09-11T14:28:37.719Z,6.83
2022-09-11T14:33:40.801Z,6.90
2022-09-11T14:38:45.539Z,6.77
2022-09-11T14:43:49.603Z,6.77
2022-09-11T14:48:52.647Z,7.07
2022-09-11T14:53:58.425Z,6.73
2022-09-11T14:59:01.413Z,6.40
2022-09-11T15:04:04.927Z,6.73
2022-09-11T15:09:09.313Z,6.57
2022-09-11T15:14:23.630Z,6.20
2022-09-11T15:19:35.635Z,6.93
2022-09-11T15:24:40.099Z,6.30
2022-09-11T15:29:43.620Z,6.43
2022-09-11T15:34:47.475Z,5.77
2022-09-11T15:39:52.245Z,6.33
2022-09-11T15:44:56.096Z,5.63
2022-09-11T15:50:00.202Z,5.87
2022-09-11T15:55:05.417Z,6.23
2022-09-11T16:00:10.038Z,7.47
2022-09-11T16:05:15.971Z,6.60
2022-09-11T16:10:21.027Z,6.20
2022-09-11T16:15:23.915Z,6.20
2022-09-11T16:20:27.004Z,6.63
2022-09-11T16:25:31.352Z,5.70
2022-09-11T16:30:43.625Z,6.37
2022-09-11T16:35:58.110Z,5.97
2022-09-11T16:41:03.921Z,6.80
2022-09-11T16:46:08.649Z,6.20
2022-09-11T16:51:12.337Z,6.37
2022-09-11T16:56:18.782Z,5.70
2022-09-11T17:01:24.401Z,6.83
2022-09-11T17:06:30.087Z,6.10
2022-09-11T17:11:34.933Z,6.20
2022-09-11T17:16:39.094Z,7.20
2022-09-11T17:21:42.270Z,6.27
2022-09-11T17:26:48.203Z,7.00
2022-09-11T17:32:05.146Z,6.93
2022-09-11T17:37:14.164Z,6.67
2022-09-11T17:42:18.500Z,6.50
2022-09-11T17:47:21.603Z,6.30
2022-09-11T17:52:24.567Z,6.40
2022-09-11T17:57:28.849Z,6.13
2022-09-11T18:02:31.811Z,6.20
2022-09-11T18:07:34.856Z,6.97
2022-09-11T18:12:39.163Z,7.00
2022-09-11T18:17:42.137Z,6.30
2022-09-11T18:22:45.228Z,6.97
2022-09-11T18:27:51.273Z,7.20
2022-09-11T18:32:54.187Z,7.47
2022-09-11T18:37:57.542Z,6.47
2022-09-11T18:43:02.129Z,6.50
2022-09-11T18:48:05.163Z,6.37
2022-09-11T18:53:08.106Z,6.17
2022-09-11T18:58:12.449Z,6.10
2022-09-11T19:03:20.731Z,6.20
2022-09-11T19:08:24.252Z,10.33
2022-09-11T19:13:28.597Z,25.07
2022-09-11T19:18:31.575Z,18.83
2022-09-11T19:23:36.981Z,10.60
2022-09-11T19:28:43.173Z,9.73
2022-09-11T19:33:46.309Z,8.10
2022-09-11T19:38:51.648Z,7.10
2022-09-11T19:43:56.381Z,8.20
2022-09-11T19:49:00.935Z,7.37
2022-09-11T19:54:05.094Z,8.07
2022-09-11T19:59:10.206Z,8.67
2022-09-11T20:04:13.625Z,8.37
2022-09-11T20:09:32.836Z,7.20
2022-09-11T20:14:41.857Z,8.40
2022-09-11T20:19:45.804Z,8.37
2022-09-11T20:24:49.711Z,9.30
2022-09-11T20:29:55.297Z,8.73
2022-09-11T20:35:00.368Z,8.70
2022-09-11T20:40:04.941Z,8.83
2022-09-11T20:45:10.343Z,8.17
2022-09-11T20:50:14.137Z,8.80
2022-09-11T20:55:17.132Z,8.60
2022-09-11T21:00:21.520Z,10.10
2022-09-11T21:05:24.465Z,9.10
2022-09-11T21:10:28.466Z,8.03
2022-09-11T21:15:32.758Z,8.87
2022-09-11T21:20:35.688Z,7.60
2022-09-11T21:25:41.444Z,9.00
2022-09-11T21:30:45.745Z,8.70
2022-09-11T21:35:53.524Z,8.73
2022-09-11T21:40:56.977Z,9.97
2022-09-11T21:46:01.572Z,9.93
2022-09-11T21:51:10.047Z,8.83
2022-09-11T21:56:18.283Z,9.80
2022-09-11T22:01:24.267Z,9.00
2022-09-11T22:06:27.588Z,9.17
2022-09-11T22:11:30.546Z,9.70
2022-09-11T22:16:34.903Z,9.63
2022-09-11T22:21:37.849Z,10.13
2022-09-11T22:26:40.808Z,8.83
2022-09-11T22:31:45.311Z,9.43
2022-09-11T22:36:48.395Z,9.80
2022-09-11T22:41:51.316Z,8.80
2022-09-11T22:46:55.602Z,10.20
2022-09-11T22:51:58.491Z,9.57
2022-09-11T22:57:01.523Z,9.97
2022-09-11T23:02:06.799Z,10.60
2022-09-11T23:07:18.814Z,9.53
2022-09-11T23:12:21.774Z,10.23
2022-09-11T23:17:26.458Z,11.00
2022-09-11T23:22:29.465Z,9.40
2022-09-11T23:27:32.937Z,9.53
2022-09-11T23:32:41.659Z,11.30
2022-09-11T23:37:45.585Z,12.23
2022-09-11T23:42:48.572Z,12.00
2022-09-11T23:47:53.423Z,11.77
2022-09-11T23:52:56.347Z,11.30
2022-09-11T23:57:59.381Z,12.47
